createdAt,value
2023-04-21T00:02:28.564Z,100290.77
2023-04-21T00:05:00.550Z,100290.70
2023-04-21T00:07:32.191Z,100282.67
2023-04-21T00:10:04.187Z,100288.30
2023-04-21T00:12:35.734Z,100293.49
2023-04-21T00:15:08.584Z,100294.10
2023-04-21T00:17:40.750Z,100292.60
2023-04-21T00:20:14.674Z,100293.32
2023-04-21T00:22:46.221Z,100290.61
2023-04-21T00:25:17.852Z,100288.87
2023-04-21T00:27:49.316Z,100280.17
2023-04-21T00:30:20.700Z,100276.77
2023-04-21T00:32:52.069Z,100273.17
2023-04-21T00:35:23.376Z,100268.58
2023-04-21T00:37:54.804Z,100262.17
2023-04-21T00:40:26.988Z,100260.30
2023-04-21T00:42:58.511Z,100257.61
2023-04-21T00:45:29.766Z,100253.33
2023-04-21T00:48:01.292Z,100250.35
2023-04-21T00:50:32.885Z,100244.13
2023-04-21T00:53:04.350Z,100243.54
2023-04-21T00:55:35.772Z,100240.48
2023-04-21T00:58:07.451Z,100239.57
2023-04-21T01:00:39.619Z,100232.52
2023-04-21T01:03:11.457Z,100229.98
2023-04-21T01:05:43.091Z,100230.65
2023-04-21T01:08:14.557Z,100223.08
2023-04-21T01:10:45.911Z,100220.44
2023-04-21T01:13:19.396Z,100217.20
2023-04-21T01:15:51.129Z,100216.55
2023-04-21T01:18:22.745Z,100218.41
2023-04-21T01:20:54.346Z,100214.11
2023-04-21T01:23:25.822Z,100214.83
2023-04-21T01:25:57.111Z,100214.41
2023-04-21T01:28:28.604Z,100215.28
2023-04-21T01:31:00.156Z,100211.61
2023-04-21T01:33:31.544Z,100210.05
2023-04-21T01:36:02.944Z,100213.35
2023-04-21T01:38:34.353Z,100216.33
2023-04-21T01:41:06.059Z,100214.81
2023-04-21T01:43:37.918Z,100218.23
2023-04-21T01:46:09.680Z,100216.48
2023-04-21T01:48:41.151Z,100215.49
2023-04-21T01:51:12.424Z,100209.50
2023-04-21T01:53:43.837Z,100206.73
2023-04-21T01:56:16.396Z,100205.77
2023-04-21T01:58:48.028Z,100210.02
2023-04-21T02:01:19.432Z,100210.36
2023-04-21T02:03:50.966Z,100213.38
2023-04-21T02:06:22.898Z,100212.70
2023-04-21T02:08:54.327Z,100213.05
2023-04-21T02:11:26.416Z,100213.94
2023-04-21T02:13:57.932Z,100217.82
2023-04-21T02:16:29.153Z,100214.02
2023-04-21T02:19:01.018Z,100211.20
2023-04-21T02:21:32.531Z,100216.88
2023-04-21T02:24:04.135Z,100215.11
2023-04-21T02:26:35.339Z,100220.11
2023-04-21T02:29:06.701Z,100220.36
2023-04-21T02:31:46.469Z,100218.10
2023-04-21T02:34:26.130Z,100210.31
2023-04-21T02:36:57.738Z,100209.70
2023-04-21T02:39:29.234Z,100207.59
2023-04-21T02:42:00.643Z,100210.77
2023-04-21T02:44:32.327Z,100206.66
2023-04-21T02:47:03.831Z,100207.67
2023-04-21T02:49:35.300Z,100213.80
2023-04-21T02:52:06.702Z,100213.55
2023-04-21T02:54:38.015Z,100209.15
2023-04-21T02:57:09.399Z,100209.15
2023-04-21T02:59:40.852Z,100205.66
2023-04-21T03:02:12.649Z,100209.23
2023-04-21T03:04:43.962Z,100215.27
2023-04-21T03:07:15.577Z,100219.36
2023-04-21T03:09:46.951Z,100225.06
2023-04-21T03:12:18.579Z,100229.45
2023-04-21T03:14:50.249Z,100234.71
2023-04-21T03:17:21.561Z,100235.36
2023-04-21T03:19:52.988Z,100233.22
2023-04-21T03:22:24.232Z,100234.51
2023-04-21T03:24:55.803Z,100235.75
2023-04-21T03:27:27.171Z,100235.92
2023-04-21T03:29:58.619Z,100235.15
2023-04-21T03:32:30.089Z,100231.70
2023-04-21T03:35:01.672Z,100231.45
2023-04-21T03:37:33.391Z,100237.33
2023-04-21T03:40:06.160Z,100238.54
2023-04-21T03:42:37.726Z,100235.17
2023-04-21T03:45:10.384Z,100239.88
2023-04-21T03:47:41.878Z,100241.14
2023-04-21T03:50:13.398Z,100242.43
2023-04-21T03:52:44.897Z,100245.71
2023-04-21T03:55:16.525Z,100253.45
2023-04-21T03:57:47.910Z,100252.04
2023-04-21T04:00:19.431Z,100257.61
2023-04-21T04:02:51.116Z,100262.00
2023-04-21T04:05:21.982Z,100267.54
2023-04-21T04:07:53.219Z,100272.87
2023-04-21T04:10:25.118Z,100277.48
2023-04-21T04:12:56.612Z,100284.30
2023-04-21T04:15:28.454Z,100290.89
2023-04-21T04:18:00.001Z,100291.98
2023-04-21T04:20:31.330Z,100299.75
2023-04-21T04:23:02.596Z,100301.05
2023-04-21T04:25:34.526Z,100303.40
2023-04-21T04:28:07.862Z,100303.60
2023-04-21T04:30:39.380Z,100311.98
2023-04-21T04:33:12.190Z,100313.03
2023-04-21T04:35:43.663Z,100322.23
2023-04-21T04:38:15.978Z,100328.17
2023-04-21T04:40:47.446Z,100332.61
2023-04-21T04:43:18.966Z,100329.19
2023-04-21T04:45:50.523Z,100331.93
2023-04-21T04:48:22.563Z,100332.53
2023-04-21T04:50:54.048Z,100332.02
2023-04-21T04:53:25.920Z,100331.34
2023-04-21T04:55:58.779Z,100332.00
2023-04-21T04:58:29.986Z,100333.09
2023-04-21T05:01:02.078Z,100336.45
2023-04-21T05:03:33.835Z,100339.91
2023-04-21T05:06:06.034Z,100337.14
2023-04-21T05:08:37.775Z,100341.91
2023-04-21T05:11:09.241Z,100336.16
2023-04-21T05:13:40.787Z,100333.75
2023-04-21T05:16:12.283Z,100334.56
2023-04-21T05:18:43.780Z,100330.73
2023-04-21T05:21:15.165Z,100325.38
2023-04-21T05:23:46.456Z,100326.19
2023-04-21T05:26:17.840Z,100329.20
2023-04-21T05:28:49.316Z,100324.02
2023-04-21T05:31:20.953Z,100326.55
2023-04-21T05:33:52.436Z,100319.00
2023-04-21T05:36:25.062Z,100316.64
2023-04-21T05:38:56.512Z,100311.56
2023-04-21T05:41:28.021Z,100311.77
2023-04-21T05:43:59.753Z,100317.65
2023-04-21T05:46:31.604Z,100314.21
2023-04-21T05:49:03.530Z,100307.58
2023-04-21T05:51:35.025Z,100303.27
2023-04-21T05:54:06.632Z,100308.42
2023-04-21T05:56:38.087Z,100309.27
2023-04-21T05:59:09.650Z,100314.08
2023-04-21T06:01:41.030Z,100309.80
2023-04-21T06:04:12.021Z,100305.65
2023-04-21T06:06:44.479Z,100307.87
2023-04-21T06:09:16.438Z,100311.32
2023-04-21T06:11:47.902Z,100314.44
2023-04-21T06:14:19.578Z,100319.27
2023-04-21T06:16:51.009Z,100319.02
2023-04-21T06:19:22.623Z,100321.20
2023-04-21T06:21:54.213Z,100319.48
2023-04-21T06:24:26.301Z,100318.91
2023-04-21T06:26:58.119Z,100319.01
2023-04-21T06:29:29.492Z,100318.95
2023-04-21T06:32:01.225Z,100310.99
2023-04-21T06:34:32.909Z,100301.94
2023-04-21T06:37:04.568Z,100308.91
2023-04-21T06:39:36.162Z,100307.75
2023-04-21T06:42:07.538Z,100313.92
2023-04-21T06:44:39.388Z,100312.75
2023-04-21T06:47:11.186Z,100315.64
2023-04-21T06:49:42.874Z,100316.80
2023-04-21T06:52:14.659Z,100318.30
2023-04-21T06:54:45.920Z,100320.27
2023-04-21T06:57:17.606Z,100322.73
2023-04-21T06:59:49.205Z,100317.06
2023-04-21T07:02:20.707Z,100313.31
2023-04-21T07:04:52.263Z,100308.64
2023-04-21T07:07:23.685Z,100309.61
2023-04-21T07:09:54.993Z,100311.80
2023-04-21T07:12:26.222Z,100311.62
2023-04-21T07:14:57.705Z,100316.25
2023-04-21T07:17:28.938Z,100315.24
2023-04-21T07:20:00.311Z,100320.09
2023-04-21T07:22:31.773Z,100324.73
2023-04-21T07:25:06.429Z,100328.65
2023-04-21T07:27:38.126Z,100329.11
2023-04-21T07:30:10.146Z,100334.06
2023-04-21T07:32:41.509Z,100334.05
2023-04-21T07:35:12.894Z,100333.39
2023-04-21T07:37:44.426Z,100335.31
2023-04-21T07:40:15.949Z,100333.33
2023-04-21T07:42:47.414Z,100339.77
2023-04-21T07:45:19.421Z,100339.20
2023-04-21T07:47:50.825Z,100338.53
2023-04-21T07:50:22.423Z,100339.71
2023-04-21T07:52:53.904Z,100346.95
2023-04-21T07:55:25.401Z,100349.48
2023-04-21T07:57:57.138Z,100350.57
2023-04-21T08:00:28.773Z,100349.02
2023-04-21T08:03:00.397Z,100350.63
2023-04-21T08:05:35.646Z,100350.27
2023-04-21T08:08:09.181Z,100350.52
2023-04-21T08:10:41.159Z,100353.69
2023-04-21T08:13:12.746Z,100352.88
2023-04-21T08:15:44.393Z,100350.12
2023-04-21T08:18:22.201Z,100347.95
2023-04-21T08:20:55.833Z,100351.77
2023-04-21T08:23:27.245Z,100350.05
2023-04-21T08:25:58.863Z,100350.54
2023-04-21T08:28:30.381Z,100353.14
2023-04-21T08:31:02.451Z,100353.06
2023-04-21T08:33:34.050Z,100350.79
2023-04-21T08:36:12.312Z,100352.71
2023-04-21T08:38:50.057Z,100350.29
2023-04-21T08:41:22.219Z,100353.98
2023-04-21T08:43:53.610Z,100356.52
2023-04-21T08:46:25.337Z,100359.38
2023-04-21T08:48:56.782Z,100362.59
2023-04-21T08:51:28.777Z,100364.33
2023-04-21T08:54:00.532Z,100364.67
2023-04-21T08:56:32.349Z,100369.33
2023-04-21T08:59:03.913Z,100368.89
2023-04-21T09:01:35.810Z,100367.63
2023-04-21T09:04:19.546Z,100366.91
2023-04-21T09:06:51.675Z,100365.00
2023-04-21T09:09:23.791Z,100365.36
2023-04-21T09:11:58.484Z,100369.45
2023-04-21T09:14:34.714Z,100368.02
2023-04-21T09:17:06.880Z,100364.42
2023-04-21T09:19:38.987Z,100366.30
2023-04-21T09:22:10.808Z,100364.15
2023-04-21T09:24:48.007Z,100365.21
2023-04-21T09:27:19.350Z,100365.46
2023-04-21T09:29:50.842Z,100363.00
2023-04-21T09:32:22.511Z,100369.18
2023-04-21T09:34:54.105Z,100370.09
2023-04-21T09:37:25.403Z,100368.94
2023-04-21T09:40:04.722Z,100367.98
2023-04-21T09:42:39.604Z,100369.95
2023-04-21T09:47:49.868Z,100362.02
2023-04-21T09:50:39.340Z,100366.27
2023-04-21T09:53:13.343Z,100364.99
2023-04-21T09:55:44.812Z,100364.42
2023-04-21T09:58:16.497Z,100366.70
2023-04-21T10:00:48.044Z,100367.27
2023-04-21T10:03:19.666Z,100366.91
2023-04-21T10:05:51.276Z,100365.27
2023-04-21T10:08:22.978Z,100360.44
2023-04-21T10:10:54.632Z,100360.04
2023-04-21T10:13:25.978Z,100357.32
2023-04-21T10:16:04.121Z,100351.89
2023-04-21T10:18:35.568Z,100360.36
2023-04-21T10:21:09.561Z,100357.48
2023-04-21T10:23:41.821Z,100357.97
2023-04-21T10:26:14.182Z,100361.09
2023-04-21T10:28:55.703Z,100363.46
2023-04-21T10:31:30.142Z,100364.83
2023-04-21T10:34:15.054Z,100363.72
2023-04-21T10:36:52.005Z,100361.82
2023-04-21T10:39:30.511Z,100361.84
2023-04-21T10:42:19.791Z,100364.03
2023-04-21T10:44:54.921Z,100359.52
2023-04-21T10:47:29.519Z,100364.04
2023-04-21T10:50:01.231Z,100363.73
2023-04-21T10:52:34.692Z,100365.44
2023-04-21T10:55:12.830Z,100368.11
2023-04-21T10:57:46.355Z,100366.53
2023-04-21T11:00:19.276Z,100367.95
2023-04-21T11:02:58.165Z,100369.36
2023-04-21T11:05:36.496Z,100365.64
2023-04-21T11:08:12.934Z,100364.08
2023-04-21T11:10:49.980Z,100364.61
2023-04-21T11:13:23.672Z,100370.40
2023-04-21T11:15:58.758Z,100371.33
2023-04-21T11:18:37.990Z,100370.19
2023-04-21T11:21:13.885Z,100361.61
2023-04-21T11:23:47.598Z,100358.05
2023-04-21T11:26:19.501Z,100353.80
2023-04-21T11:28:51.214Z,100353.38
2023-04-21T11:31:22.597Z,100350.23
2023-04-21T11:33:54.121Z,100351.90
2023-04-21T11:36:25.372Z,100348.04
2023-04-21T11:38:56.821Z,100345.33
2023-04-21T11:41:28.570Z,100346.38
2023-04-21T11:43:59.985Z,100345.55
2023-04-21T11:46:32.494Z,100341.34
2023-04-21T11:49:04.507Z,100338.41
2023-04-21T11:51:36.680Z,100340.79
2023-04-21T11:54:08.637Z,100337.70
2023-04-21T11:56:40.717Z,100339.73
2023-04-21T11:59:12.420Z,100338.97
2023-04-21T12:01:46.938Z,100339.09
2023-04-21T12:04:19.127Z,100334.64
2023-04-21T12:06:58.489Z,100330.09
2023-04-21T12:09:30.188Z,100328.10
2023-04-21T12:12:04.740Z,100329.20
2023-04-21T12:14:36.274Z,100328.73
2023-04-21T12:17:07.859Z,100324.39
2023-04-21T12:19:41.034Z,100317.55
2023-04-21T12:22:12.813Z,100319.16
2023-04-21T12:24:44.308Z,100313.88
2023-04-21T12:27:15.558Z,100312.23
2023-04-21T12:29:46.694Z,100314.02
2023-04-21T12:32:18.114Z,100310.45
2023-04-21T12:34:49.966Z,100306.64
2023-04-21T12:37:21.216Z,100301.48
2023-04-21T12:39:52.492Z,100301.23
2023-04-21T12:42:24.072Z,100301.84
2023-04-21T12:44:56.984Z,100301.30
2023-04-21T12:47:28.503Z,100299.79
2023-04-21T12:49:59.878Z,100296.17
2023-04-21T12:52:31.331Z,100294.36
2023-04-21T12:55:02.910Z,100295.48
2023-04-21T12:57:34.508Z,100294.45
2023-04-21T13:00:08.625Z,100291.10
2023-04-21T13:02:40.245Z,100292.02
2023-04-21T13:05:12.900Z,100292.36
2023-04-21T13:07:44.405Z,100291.52
2023-04-21T13:10:16.025Z,100292.09
2023-04-21T13:12:47.689Z,100285.39
2023-04-21T13:15:19.295Z,100285.10
2023-04-21T13:17:50.510Z,100283.52
2023-04-21T13:20:22.489Z,100287.95
2023-04-21T13:22:54.192Z,100286.48
2023-04-21T13:25:25.610Z,100284.85
2023-04-21T13:27:57.205Z,100286.98
2023-04-21T13:30:28.553Z,100284.98
2023-04-21T13:33:00.161Z,100286.52
2023-04-21T13:35:31.839Z,100285.99
2023-04-21T13:38:03.553Z,100282.80
2023-04-21T13:40:34.887Z,100285.16
2023-04-21T13:43:06.201Z,100289.83
2023-04-21T13:45:37.871Z,100286.45
2023-04-21T13:48:09.567Z,100293.45
2023-04-21T13:50:41.206Z,100287.81
2023-04-21T13:53:14.216Z,100288.84
2023-04-21T13:55:45.634Z,100284.84
2023-04-21T13:58:17.248Z,100283.17
2023-04-21T14:00:48.692Z,100280.47
2023-04-21T14:03:20.562Z,100283.80
2023-04-21T14:05:52.157Z,100283.55
2023-04-21T14:08:23.731Z,100279.91
2023-04-21T14:10:55.223Z,100281.23
2023-04-21T14:13:36.403Z,100279.70
2023-04-21T14:16:13.709Z,100278.36
2023-04-21T14:18:46.609Z,100281.91
2023-04-21T14:21:18.008Z,100283.45
2023-04-21T14:23:49.593Z,100283.59
2023-04-21T14:26:21.275Z,100276.19
2023-04-21T14:28:52.849Z,100278.75
2023-04-21T14:31:24.797Z,100283.09
2023-04-21T14:33:56.400Z,100284.77
2023-04-21T14:36:28.091Z,100287.77
2023-04-21T14:38:59.791Z,100288.20
2023-04-21T14:41:31.472Z,100290.37
2023-04-21T14:44:04.090Z,100286.87
2023-04-21T14:46:37.916Z,100292.56
2023-04-21T14:49:09.734Z,100287.73
2023-04-21T14:51:42.168Z,100289.86
2023-04-21T14:54:13.665Z,100289.80
2023-04-21T14:56:44.873Z,100286.89
2023-04-21T14:59:16.113Z,100288.73
2023-04-21T15:01:47.759Z,100286.63
2023-04-21T15:04:19.438Z,100291.79
2023-04-21T15:06:52.164Z,100287.98
2023-04-21T15:09:25.327Z,100287.20
2023-04-21T15:12:01.118Z,100283.75
2023-04-21T15:14:32.641Z,100280.17
2023-04-21T15:17:04.282Z,100281.33
2023-04-21T15:19:36.536Z,100281.18
2023-04-21T15:22:08.017Z,100278.85
2023-04-21T15:24:39.453Z,100276.30
2023-04-21T15:27:12.645Z,100275.53
2023-04-21T15:29:44.259Z,100277.60
2023-04-21T15:32:16.365Z,100276.64
2023-04-21T15:34:47.672Z,100272.36
2023-04-21T15:37:20.190Z,100271.98
2023-04-21T15:39:51.813Z,100272.02
2023-04-21T15:42:23.800Z,100268.25
2023-04-21T15:44:55.958Z,100268.52
2023-04-21T15:47:27.203Z,100266.13
2023-04-21T15:49:58.687Z,100267.35
2023-04-21T15:52:30.846Z,100268.98
2023-04-21T15:55:02.650Z,100269.32
2023-04-21T15:57:34.855Z,100266.43
2023-04-21T16:00:10.430Z,100266.55
2023-04-21T16:02:42.323Z,100264.57
2023-04-21T16:05:14.463Z,100268.58
2023-04-21T16:07:46.387Z,100268.19
2023-04-21T16:10:18.096Z,100272.91
2023-04-21T16:12:51.116Z,100270.73
2023-04-21T16:15:24.287Z,100272.65
2023-04-21T16:17:56.657Z,100275.78
2023-04-21T16:20:29.272Z,100271.44
2023-04-21T16:23:00.883Z,100271.02
2023-04-21T16:25:32.397Z,100271.33
2023-04-21T16:28:03.827Z,100273.14
2023-04-21T16:30:36.150Z,100273.55
2023-04-21T16:33:09.534Z,100269.61
2023-04-21T16:35:41.315Z,100270.15
2023-04-21T16:38:12.824Z,100268.56
2023-04-21T16:40:44.328Z,100272.24
2023-04-21T16:43:15.877Z,100276.02
2023-04-21T16:45:47.541Z,100273.45
2023-04-21T16:48:19.241Z,100271.86
2023-04-21T16:50:53.429Z,100272.14
2023-04-21T16:53:25.639Z,100275.23
2023-04-21T16:55:57.066Z,100275.43
2023-04-21T16:58:28.842Z,100277.91
2023-04-21T17:01:00.498Z,100277.02
2023-04-21T17:03:32.259Z,100275.91
2023-04-21T17:06:05.169Z,100273.41
2023-04-21T17:08:36.672Z,100275.33
2023-04-21T17:11:08.522Z,100277.23
2023-04-21T17:13:40.247Z,100277.85
2023-04-21T17:16:11.867Z,100283.86
2023-04-21T17:18:43.286Z,100287.03
2023-04-21T17:21:14.880Z,100288.55
2023-04-21T17:23:47.049Z,100294.08
2023-04-21T17:26:18.652Z,100296.34
2023-04-21T17:28:51.083Z,100297.34
2023-04-21T17:31:22.710Z,100302.46
2023-04-21T17:33:54.482Z,100309.72
2023-04-21T17:36:25.896Z,100311.69
2023-04-21T17:38:58.531Z,100313.77
2023-04-21T17:41:30.362Z,100317.74
2023-04-21T17:44:01.927Z,100326.50
2023-04-21T17:46:33.385Z,100325.63
2023-04-21T17:49:04.670Z,100322.95
2023-04-21T17:51:36.202Z,100323.90
2023-04-21T17:54:08.495Z,100324.70
2023-04-21T17:56:40.761Z,100324.80
2023-04-21T17:59:12.301Z,100329.84
2023-04-21T18:01:43.646Z,100330.99
2023-04-21T18:04:16.944Z,100335.29
2023-04-21T18:06:48.611Z,100337.70
2023-04-21T18:09:20.962Z,100339.91
2023-04-21T18:11:52.549Z,100345.84
2023-04-21T18:14:24.690Z,100351.92
2023-04-21T18:16:56.216Z,100359.13
2023-04-21T18:19:27.665Z,100358.45
2023-04-21T18:21:59.052Z,100362.23
2023-04-21T18:24:30.596Z,100365.08
2023-04-21T18:27:02.264Z,100371.67
2023-04-21T18:29:33.742Z,100374.81
2023-04-21T18:32:05.183Z,100376.82
2023-04-21T18:34:37.129Z,100377.65
2023-04-21T18:37:08.990Z,100379.12
2023-04-21T18:39:42.804Z,100377.51
2023-04-21T18:42:13.983Z,100380.73
2023-04-21T18:44:45.384Z,100377.20
2023-04-21T18:47:17.033Z,100377.00
2023-04-21T18:49:49.600Z,100375.56
2023-04-21T18:52:20.978Z,100374.98
2023-04-21T18:54:52.305Z,100377.82
2023-04-21T18:57:23.730Z,100378.05
2023-04-21T18:59:55.320Z,100383.28
2023-04-21T19:02:26.465Z,100381.57
2023-04-21T19:04:57.942Z,100381.02
2023-04-21T19:07:29.364Z,100382.41
2023-04-21T19:10:01.177Z,100385.31
2023-04-21T19:12:34.302Z,100390.70
2023-04-21T19:15:05.947Z,100387.73
2023-04-21T19:17:39.846Z,100383.17
2023-04-21T19:20:12.496Z,100383.38
2023-04-21T19:22:44.523Z,100383.44
2023-04-21T19:25:16.785Z,100382.39
2023-04-21T19:27:48.184Z,100376.44
2023-04-21T19:30:19.820Z,100382.10
2023-04-21T19:32:51.083Z,100386.36
2023-04-21T19:35:22.661Z,100382.28
2023-04-21T19:37:54.361Z,100384.23
2023-04-21T19:40:27.160Z,100383.29
2023-04-21T19:42:59.209Z,100383.65
2023-04-21T19:45:30.949Z,100387.23
2023-04-21T19:48:02.787Z,100393.26
2023-04-21T19:50:35.979Z,100397.77
2023-04-21T19:59:16.932Z,100394.23
2023-04-21T20:01:47.776Z,100395.31
2023-04-21T20:04:19.088Z,100396.35
2023-04-21T20:06:50.412Z,100398.31
2023-04-21T20:09:21.497Z,100397.00
2023-04-21T20:11:52.798Z,100400.55
2023-04-21T20:14:23.768Z,100400.95
2023-04-21T20:16:54.802Z,100401.38
2023-04-21T20:25:07.036Z,100421.52
2023-04-21T20:27:35.214Z,100429.44
2023-04-21T20:30:04.075Z,100435.83
2023-04-21T20:32:33.542Z,100431.34
2023-04-21T20:35:02.078Z,100427.11
2023-04-21T20:37:32.956Z,100429.26
2023-04-21T20:40:03.856Z,100432.58
2023-04-21T20:42:32.873Z,100434.18
2023-04-21T20:45:01.862Z,100437.48
2023-04-21T20:47:33.113Z,100433.01
2023-04-21T20:50:01.351Z,100434.15
2023-04-21T20:52:29.510Z,100435.85
2023-04-21T20:54:57.671Z,100437.39
2023-04-21T20:57:26.411Z,100434.04
2023-04-21T20:59:54.606Z,100439.73
2023-04-21T21:02:22.786Z,100442.85
2023-04-21T21:04:50.959Z,100445.90
2023-04-21T21:07:19.075Z,100448.41
2023-04-21T21:09:47.248Z,100456.95
2023-04-21T21:12:15.381Z,100462.30
2023-04-21T21:14:43.677Z,100459.71
2023-04-21T21:17:15.678Z,100467.08
2023-04-21T21:19:43.792Z,100467.56
2023-04-21T21:22:11.866Z,100466.14
2023-04-21T21:24:40.130Z,100465.38
2023-04-21T21:27:08.448Z,100468.83
2023-04-21T21:29:36.870Z,100470.86
2023-04-21T21:32:05.302Z,100475.17
2023-04-21T21:34:33.502Z,100477.84
2023-04-21T21:37:01.616Z,100474.40
2023-04-21T21:39:29.776Z,100475.27
2023-04-21T21:41:57.894Z,100475.35
2023-04-21T21:44:26.265Z,100473.20
2023-04-21T21:46:54.480Z,100468.15
2023-04-21T21:49:22.595Z,100475.08
2023-04-21T21:51:52.398Z,100477.74
2023-04-21T21:54:20.495Z,100485.05
2023-04-21T21:56:48.589Z,100479.70
2023-04-21T21:59:16.743Z,100484.20
2023-04-21T22:01:45.011Z,100482.09
2023-04-21T22:04:13.223Z,100486.77
2023-04-21T22:06:41.904Z,100491.25
2023-04-21T22:09:09.920Z,100490.36
2023-04-21T22:11:38.186Z,100493.81
2023-04-21T22:14:21.213Z,100494.09
2023-04-21T22:16:52.112Z,100491.11
2023-04-21T22:19:20.192Z,100493.86
2023-04-21T22:21:48.406Z,100492.37
2023-04-21T22:24:16.536Z,100493.17
2023-04-21T22:26:44.886Z,100489.51
2023-04-21T22:29:12.853Z,100491.25
2023-04-21T22:31:41.093Z,100497.95
2023-04-21T22:34:09.766Z,100505.90
2023-04-21T22:36:37.837Z,100504.85
2023-04-21T22:39:06.368Z,100500.27
2023-04-21T22:41:34.468Z,100502.67
2023-04-21T22:44:02.470Z,100499.52
2023-04-21T22:46:31.688Z,100493.52
2023-04-21T22:48:59.863Z,100494.41
2023-04-21T22:51:29.277Z,100498.54
2023-04-21T22:53:57.428Z,100499.17
2023-04-21T22:56:25.799Z,100497.64
2023-04-21T22:58:54.827Z,100501.13
2023-04-21T23:01:23.309Z,100499.14
2023-04-21T23:03:51.675Z,100501.02
2023-04-21T23:06:20.062Z,100499.83
2023-04-21T23:08:48.241Z,100501.98
2023-04-21T23:11:16.287Z,100498.27
2023-04-21T23:13:44.427Z,100496.75
2023-04-21T23:16:12.788Z,100493.67
2023-04-21T23:18:40.868Z,100493.15
2023-04-21T23:21:08.951Z,100494.17
2023-04-21T23:23:37.168Z,100497.41
2023-04-21T23:26:05.497Z,100499.95
2023-04-21T23:28:33.637Z,100502.04
2023-04-21T23:31:01.789Z,100502.67
2023-04-21T23:33:29.950Z,100503.98
2023-04-21T23:35:57.989Z,100503.33
2023-04-21T23:38:26.218Z,100506.16
2023-04-21T23:40:54.235Z,100507.95
2023-04-21T23:43:22.407Z,100503.33
2023-04-21T23:45:50.550Z,100503.21
2023-04-21T23:48:18.634Z,100500.60
2023-04-21T23:50:46.740Z,100499.11
2023-04-21T23:53:15.015Z,100504.33
2023-04-21T23:55:43.202Z,100504.48
2023-04-21T23:58:11.461Z,100505.70
